sensor_id;sensor_type;location;lat;lon;timestamp;P1;durP1;ratioP1;P2;durP2;ratioP2
45344;SDS011;31078;48.304;11.896;2023-06-10T00:01:19;5.75;;;4.65;;
45344;SDS011;31078;48.304;11.896;2023-06-10T00:03:47;7.40;;;4.80;;
45344;SDS011;31078;48.304;11.896;2023-06-10T00:06:14;6.68;;;5.15;;
45344;SDS011;31078;48.304;11.896;2023-06-10T00:08:40;7.03;;;4.90;;
45344;SDS011;31078;48.304;11.896;2023-06-10T00:11:07;6.57;;;5.28;;
45344;SDS011;31078;48.304;11.896;2023-06-10T00:13:35;6.95;;;4.88;;
45344;SDS011;31078;48.304;11.896;2023-06-10T00:16:02;7.72;;;4.65;;
45344;SDS011;31078;48.304;11.896;2023-06-10T00:18:29;5.88;;;4.90;;
45344;SDS011;31078;48.304;11.896;2023-06-10T00:20:56;6.20;;;4.65;;
45344;SDS011;31078;48.304;11.896;2023-06-10T00:23:28;6.72;;;5.03;;
45344;SDS011;31078;48.304;11.896;2023-06-10T00:25:56;6.00;;;4.72;;
45344;SDS011;31078;48.304;11.896;2023-06-10T00:28:22;6.57;;;5.40;;
45344;SDS011;31078;48.304;11.896;2023-06-10T00:30:50;6.45;;;5.40;;
45344;SDS011;31078;48.304;11.896;2023-06-10T00:33:17;5.85;;;4.95;;
45344;SDS011;31078;48.304;11.896;2023-06-10T00:35:43;7.38;;;5.63;;
45344;SDS011;31078;48.304;11.896;2023-06-10T00:38:10;7.07;;;5.80;;
45344;SDS011;31078;48.304;11.896;2023-06-10T00:40:38;7.53;;;5.35;;
45344;SDS011;31078;48.304;11.896;2023-06-10T00:43:05;7.65;;;5.57;;
45344;SDS011;31078;48.304;11.896;2023-06-10T00:45:32;7.38;;;5.65;;
45344;SDS011;31078;48.304;11.896;2023-06-10T00:48:00;8.85;;;6.22;;
45344;SDS011;31078;48.304;11.896;2023-06-10T00:50:27;6.55;;;5.50;;
45344;SDS011;31078;48.304;11.896;2023-06-10T00:52:54;7.68;;;5.75;;
45344;SDS011;31078;48.304;11.896;2023-06-10T00:55:22;7.40;;;5.68;;
45344;SDS011;31078;48.304;11.896;2023-06-10T00:57:49;8.68;;;5.78;;
45344;SDS011;31078;48.304;11.896;2023-06-10T01:00:17;9.48;;;6.88;;
45344;SDS011;31078;48.304;11.896;2023-06-10T01:02:44;10.48;;;6.38;;
45344;SDS011;31078;48.304;11.896;2023-06-10T01:05:12;7.65;;;5.72;;
45344;SDS011;31078;48.304;11.896;2023-06-10T01:07:40;7.05;;;6.22;;
45344;SDS011;31078;48.304;11.896;2023-06-10T01:10:14;7.25;;;5.70;;
45344;SDS011;31078;48.304;11.896;2023-06-10T01:12:46;9.02;;;6.72;;
45344;SDS011;31078;48.304;11.896;2023-06-10T01:15:18;7.57;;;5.75;;
45344;SDS011;31078;48.304;11.896;2023-06-10T01:17:54;7.57;;;5.75;;
45344;SDS011;31078;48.304;11.896;2023-06-10T01:20:23;7.60;;;5.78;;
45344;SDS011;31078;48.304;11.896;2023-06-10T01:22:53;7.22;;;6.03;;
45344;SDS011;31078;48.304;11.896;2023-06-10T01:25:20;8.02;;;6.15;;
45344;SDS011;31078;48.304;11.896;2023-06-10T01:27:52;7.07;;;5.90;;
45344;SDS011;31078;48.304;11.896;2023-06-10T01:30:20;7.68;;;6.20;;
45344;SDS011;31078;48.304;11.896;2023-06-10T01:32:54;8.20;;;5.93;;
45344;SDS011;31078;48.304;11.896;2023-06-10T01:35:24;9.10;;;6.20;;
45344;SDS011;31078;48.304;11.896;2023-06-10T01:37:53;8.32;;;6.45;;
45344;SDS011;31078;48.304;11.896;2023-06-10T01:40:22;8.10;;;6.15;;
45344;SDS011;31078;48.304;11.896;2023-06-10T01:42:50;8.43;;;6.50;;
45344;SDS011;31078;48.304;11.896;2023-06-10T01:45:17;8.85;;;6.63;;
45344;SDS011;31078;48.304;11.896;2023-06-10T01:47:44;7.95;;;6.32;;
45344;SDS011;31078;48.304;11.896;2023-06-10T01:50:10;7.97;;;6.30;;
45344;SDS011;31078;48.304;11.896;2023-06-10T01:52:37;7.65;;;6.35;;
45344;SDS011;31078;48.304;11.896;2023-06-10T01:55:05;9.15;;;7.40;;
45344;SDS011;31078;48.304;11.896;2023-06-10T01:57:32;11.65;;;7.82;;
45344;SDS011;31078;48.304;11.896;2023-06-10T01:59:59;7.07;;;6.22;;
45344;SDS011;31078;48.304;11.896;2023-06-10T02:02:25;8.77;;;6.68;;
45344;SDS011;31078;48.304;11.896;2023-06-10T02:04:52;8.38;;;6.38;;
45344;SDS011;31078;48.304;11.896;2023-06-10T02:07:18;9.13;;;7.18;;
45344;SDS011;31078;48.304;11.896;2023-06-10T02:09:44;9.48;;;7.13;;
45344;SDS011;31078;48.304;11.896;2023-06-10T02:12:12;9.13;;;7.00;;
45344;SDS011;31078;48.304;11.896;2023-06-10T02:14:39;8.77;;;7.25;;
45344;SDS011;31078;48.304;11.896;2023-06-10T02:17:06;8.52;;;6.68;;
45344;SDS011;31078;48.304;11.896;2023-06-10T02:19:32;8.95;;;6.70;;
45344;SDS011;31078;48.304;11.896;2023-06-10T02:22:01;8.02;;;6.10;;
45344;SDS011;31078;48.304;11.896;2023-06-10T02:24:28;9.88;;;7.28;;
45344;SDS011;31078;48.304;11.896;2023-06-10T02:26:54;8.52;;;6.72;;
45344;SDS011;31078;48.304;11.896;2023-06-10T02:29:22;8.75;;;6.65;;
45344;SDS011;31078;48.304;11.896;2023-06-10T02:31:50;10.43;;;6.97;;
45344;SDS011;31078;48.304;11.896;2023-06-10T02:34:17;9.40;;;6.68;;
45344;SDS011;31078;48.304;11.896;2023-06-10T02:36:44;9.85;;;7.82;;
45344;SDS011;31078;48.304;11.896;2023-06-10T02:39:11;9.80;;;7.15;;
45344;SDS011;31078;48.304;11.896;2023-06-10T02:41:38;10.82;;;8.05;;
45344;SDS011;31078;48.304;11.896;2023-06-10T02:44:04;12.55;;;8.50;;
45344;SDS011;31078;48.304;11.896;2023-06-10T02:46:32;8.35;;;7.03;;
45344;SDS011;31078;48.304;11.896;2023-06-10T02:48:59;9.05;;;7.50;;
45344;SDS011;31078;48.304;11.896;2023-06-10T02:51:26;11.15;;;7.45;;
45344;SDS011;31078;48.304;11.896;2023-06-10T02:53:53;8.48;;;7.13;;
45344;SDS011;31078;48.304;11.896;2023-06-10T02:56:19;12.88;;;7.97;;
45344;SDS011;31078;48.304;11.896;2023-06-10T02:58:46;9.60;;;8.00;;
45344;SDS011;31078;48.304;11.896;2023-06-10T03:01:13;10.20;;;8.05;;
45344;SDS011;31078;48.304;11.896;2023-06-10T03:03:41;11.73;;;8.23;;
45344;SDS011;31078;48.304;11.896;2023-06-10T03:06:09;8.85;;;7.63;;
45344;SDS011;31078;48.304;11.896;2023-06-10T03:08:37;9.25;;;7.45;;
45344;SDS011;31078;48.304;11.896;2023-06-10T03:11:04;9.95;;;7.78;;
45344;SDS011;31078;48.304;11.896;2023-06-10T03:13:30;15.13;;;9.88;;
45344;SDS011;31078;48.304;11.896;2023-06-10T03:15:57;10.68;;;7.65;;
45344;SDS011;31078;48.304;11.896;2023-06-10T03:18:26;11.07;;;7.78;;
45344;SDS011;31078;48.304;11.896;2023-06-10T03:20:54;9.63;;;7.88;;
45344;SDS011;31078;48.304;11.896;2023-06-10T03:23:22;9.35;;;7.50;;
45344;SDS011;31078;48.304;11.896;2023-06-10T03:25:48;11.73;;;7.80;;
45344;SDS011;31078;48.304;11.896;2023-06-10T03:28:15;9.88;;;7.68;;
45344;SDS011;31078;48.304;11.896;2023-06-10T03:30:41;9.80;;;7.97;;
45344;SDS011;31078;48.304;11.896;2023-06-10T03:33:08;11.70;;;7.85;;
45344;SDS011;31078;48.304;11.896;2023-06-10T03:35:34;10.98;;;8.07;;
45344;SDS011;31078;48.304;11.896;2023-06-10T03:38:02;10.93;;;8.20;;
45344;SDS011;31078;48.304;11.896;2023-06-10T03:40:29;10.35;;;8.20;;
45344;SDS011;31078;48.304;11.896;2023-06-10T03:42:56;9.57;;;8.00;;
45344;SDS011;31078;48.304;11.896;2023-06-10T03:45:23;10.98;;;8.43;;
45344;SDS011;31078;48.304;11.896;2023-06-10T03:47:50;9.75;;;8.15;;
45344;SDS011;31078;48.304;11.896;2023-06-10T03:50:17;12.13;;;8.32;;
45344;SDS011;31078;48.304;11.896;2023-06-10T03:52:43;11.95;;;8.35;;
45344;SDS011;31078;48.304;11.896;2023-06-10T03:55:12;10.80;;;8.13;;
45344;SDS011;31078;48.304;11.896;2023-06-10T03:57:38;11.35;;;8.23;;
45344;SDS011;31078;48.304;11.896;2023-06-10T04:00:05;10.57;;;7.90;;
45344;SDS011;31078;48.304;11.896;2023-06-10T04:02:36;10.85;;;7.10;;
45344;SDS011;31078;48.304;11.896;2023-06-10T04:05:03;12.85;;;8.45;;
45344;SDS011;31078;48.304;11.896;2023-06-10T04:07:30;11.77;;;7.82;;
45344;SDS011;31078;48.304;11.896;2023-06-10T04:09:57;10.50;;;7.95;;
45344;SDS011;31078;48.304;11.896;2023-06-10T04:12:25;10.75;;;7.97;;
45344;SDS011;31078;48.304;11.896;2023-06-10T04:14:51;11.38;;;7.90;;
45344;SDS011;31078;48.304;11.896;2023-06-10T04:17:18;10.10;;;7.97;;
45344;SDS011;31078;48.304;11.896;2023-06-10T04:19:45;12.35;;;8.60;;
45344;SDS011;31078;48.304;11.896;2023-06-10T04:22:11;10.88;;;8.05;;
45344;SDS011;31078;48.304;11.896;2023-06-10T04:24:38;10.32;;;7.82;;
45344;SDS011;31078;48.304;11.896;2023-06-10T04:27:04;10.75;;;8.65;;
45344;SDS011;31078;48.304;11.896;2023-06-10T04:29:33;10.98;;;8.77;;
45344;SDS011;31078;48.304;11.896;2023-06-10T04:32:00;10.85;;;8.30;;
45344;SDS011;31078;48.304;11.896;2023-06-10T04:34:26;10.90;;;8.20;;
45344;SDS011;31078;48.304;11.896;2023-06-10T04:36:53;11.13;;;7.93;;
45344;SDS011;31078;48.304;11.896;2023-06-10T04:39:20;11.70;;;8.80;;
45344;SDS011;31078;48.304;11.896;2023-06-10T04:41:46;11.13;;;8.70;;
45344;SDS011;31078;48.304;11.896;2023-06-10T04:44:12;11.05;;;8.57;;
45344;SDS011;31078;48.304;11.896;2023-06-10T04:46:41;11.98;;;8.40;;
45344;SDS011;31078;48.304;11.896;2023-06-10T04:49:07;12.27;;;8.50;;
45344;SDS011;31078;48.304;11.896;2023-06-10T04:51:34;11.65;;;9.25;;
45344;SDS011;31078;48.304;11.896;2023-06-10T04:54:00;12.43;;;8.85;;
45344;SDS011;31078;48.304;11.896;2023-06-10T04:56:28;11.90;;;8.63;;
45344;SDS011;31078;48.304;11.896;2023-06-10T04:58:55;12.82;;;9.63;;
45344;SDS011;31078;48.304;11.896;2023-06-10T05:01:21;10.88;;;8.52;;
45344;SDS011;31078;48.304;11.896;2023-06-10T05:03:49;10.95;;;8.02;;
45344;SDS011;31078;48.304;11.896;2023-06-10T05:06:16;11.30;;;8.32;;
45344;SDS011;31078;48.304;11.896;2023-06-10T05:08:42;11.63;;;8.65;;
45344;SDS011;31078;48.304;11.896;2023-06-10T05:11:09;12.75;;;8.00;;
45344;SDS011;31078;48.304;11.896;2023-06-10T05:13:35;11.38;;;9.13;;
45344;SDS011;31078;48.304;11.896;2023-06-10T05:16:02;10.00;;;7.88;;
45344;SDS011;31078;48.304;11.896;2023-06-10T05:18:28;13.23;;;8.98;;
45344;SDS011;31078;48.304;11.896;2023-06-10T05:20:57;12.00;;;8.38;;
45344;SDS011;31078;48.304;11.896;2023-06-10T05:23:24;11.95;;;8.35;;
45344;SDS011;31078;48.304;11.896;2023-06-10T05:25:50;12.15;;;8.40;;
45344;SDS011;31078;48.304;11.896;2023-06-10T05:28:16;10.07;;;7.13;;
45344;SDS011;31078;48.304;11.896;2023-06-10T05:30:43;13.10;;;8.95;;
45344;SDS011;31078;48.304;11.896;2023-06-10T05:33:09;11.55;;;8.07;;
45344;SDS011;31078;48.304;11.896;2023-06-10T05:35:36;10.70;;;7.93;;
45344;SDS011;31078;48.304;11.896;2023-06-10T05:38:04;10.80;;;8.05;;
45344;SDS011;31078;48.304;11.896;2023-06-10T05:40:30;9.88;;;7.90;;
45344;SDS011;31078;48.304;11.896;2023-06-10T05:42:57;9.98;;;7.78;;
45344;SDS011;31078;48.304;11.896;2023-06-10T05:45:23;10.45;;;8.50;;
45344;SDS011;31078;48.304;11.896;2023-06-10T05:47:50;9.68;;;7.78;;
45344;SDS011;31078;48.304;11.896;2023-06-10T05:50:16;10.55;;;8.05;;
45344;SDS011;31078;48.304;11.896;2023-06-10T05:52:43;11.80;;;8.55;;
45344;SDS011;31078;48.304;11.896;2023-06-10T05:55:11;12.25;;;8.35;;
45344;SDS011;31078;48.304;11.896;2023-06-10T05:57:37;15.43;;;9.10;;
45344;SDS011;31078;48.304;11.896;2023-06-10T06:00:04;13.07;;;9.38;;
45344;SDS011;31078;48.304;11.896;2023-06-10T06:02:32;12.82;;;8.88;;
45344;SDS011;31078;48.304;11.896;2023-06-10T06:04:59;14.95;;;10.02;;
45344;SDS011;31078;48.304;11.896;2023-06-10T06:07:25;11.80;;;9.88;;
45344;SDS011;31078;48.304;11.896;2023-06-10T06:09:52;13.73;;;9.25;;
45344;SDS011;31078;48.304;11.896;2023-06-10T06:12:20;10.48;;;8.90;;
45344;SDS011;31078;48.304;11.896;2023-06-10T06:14:47;12.02;;;9.35;;
45344;SDS011;31078;48.304;11.896;2023-06-10T06:17:14;13.10;;;9.40;;
45344;SDS011;31078;48.304;11.896;2023-06-10T06:19:40;12.43;;;9.63;;
45344;SDS011;31078;48.304;11.896;2023-06-10T06:22:07;13.80;;;10.02;;
45344;SDS011;31078;48.304;11.896;2023-06-10T06:24:33;11.25;;;9.75;;
45344;SDS011;31078;48.304;11.896;2023-06-10T06:27:00;14.77;;;10.48;;
45344;SDS011;31078;48.304;11.896;2023-06-10T06:29:28;13.32;;;10.30;;
45344;SDS011;31078;48.304;11.896;2023-06-10T06:31:55;12.63;;;9.98;;
45344;SDS011;31078;48.304;11.896;2023-06-10T06:34:21;12.43;;;10.07;;
45344;SDS011;31078;48.304;11.896;2023-06-10T06:36:48;15.38;;;10.90;;
45344;SDS011;31078;48.304;11.896;2023-06-10T06:39:14;13.38;;;9.70;;
45344;SDS011;31078;48.304;11.896;2023-06-10T06:41:41;15.18;;;10.70;;
45344;SDS011;31078;48.304;11.896;2023-06-10T06:44:07;11.85;;;9.30;;
45344;SDS011;31078;48.304;11.896;2023-06-10T06:46:35;13.98;;;9.90;;
45344;SDS011;31078;48.304;11.896;2023-06-10T06:49:01;12.35;;;9.93;;
45344;SDS011;31078;48.304;11.896;2023-06-10T06:51:28;10.02;;;7.97;;
45344;SDS011;31078;48.304;11.896;2023-06-10T06:53:54;12.88;;;10.07;;
45344;SDS011;31078;48.304;11.896;2023-06-10T06:56:23;13.15;;;8.90;;
45344;SDS011;31078;48.304;11.896;2023-06-10T06:58:52;11.43;;;8.48;;
45344;SDS011;31078;48.304;11.896;2023-06-10T07:01:18;10.88;;;8.25;;
45344;SDS011;31078;48.304;11.896;2023-06-10T07:03:46;11.45;;;8.55;;
45344;SDS011;31078;48.304;11.896;2023-06-10T07:06:13;9.90;;;7.63;;
45344;SDS011;31078;48.304;11.896;2023-06-10T07:08:39;11.70;;;8.05;;
45344;SDS011;31078;48.304;11.896;2023-06-10T07:11:06;10.80;;;8.57;;
45344;SDS011;31078;48.304;11.896;2023-06-10T07:13:32;10.77;;;8.50;;
45344;SDS011;31078;48.304;11.896;2023-06-10T07:15:59;12.48;;;8.50;;
45344;SDS011;31078;48.304;11.896;2023-06-10T07:18:25;10.30;;;7.95;;
45344;SDS011;31078;48.304;11.896;2023-06-10T07:20:53;13.88;;;8.63;;
45344;SDS011;31078;48.304;11.896;2023-06-10T07:23:20;11.30;;;7.53;;
45344;SDS011;31078;48.304;11.896;2023-06-10T07:25:46;7.63;;;6.20;;
45344;SDS011;31078;48.304;11.896;2023-06-10T07:28:13;8.60;;;6.97;;
45344;SDS011;31078;48.304;11.896;2023-06-10T07:30:39;8.95;;;6.15;;
45344;SDS011;31078;48.304;11.896;2023-06-10T07:33:06;11.40;;;6.88;;
45344;SDS011;31078;48.304;11.896;2023-06-10T07:35:32;11.35;;;7.28;;
45344;SDS011;31078;48.304;11.896;2023-06-10T07:38:00;10.20;;;7.50;;
45344;SDS011;31078;48.304;11.896;2023-06-10T07:40:27;8.15;;;6.18;;
45344;SDS011;31078;48.304;11.896;2023-06-10T07:42:54;9.48;;;6.68;;
45344;SDS011;31078;48.304;11.896;2023-06-10T07:45:21;7.50;;;6.10;;
45344;SDS011;31078;48.304;11.896;2023-06-10T07:47:48;10.75;;;7.57;;
45344;SDS011;31078;48.304;11.896;2023-06-10T07:50:14;8.15;;;6.18;;
45344;SDS011;31078;48.304;11.896;2023-06-10T07:52:41;6.22;;;5.50;;
45344;SDS011;31078;48.304;11.896;2023-06-10T07:55:08;7.90;;;6.20;;
45344;SDS011;31078;48.304;11.896;2023-06-10T07:57:35;8.15;;;6.43;;
45344;SDS011;31078;48.304;11.896;2023-06-10T08:00:03;8.02;;;5.40;;
45344;SDS011;31078;48.304;11.896;2023-06-10T08:02:31;7.25;;;5.70;;
45344;SDS011;31078;48.304;11.896;2023-06-10T08:04:57;6.80;;;5.30;;
45344;SDS011;31078;48.304;11.896;2023-06-10T08:07:24;7.43;;;5.32;;
45344;SDS011;31078;48.304;11.896;2023-06-10T08:09:50;7.03;;;5.10;;
45344;SDS011;31078;48.304;11.896;2023-06-10T08:12:18;6.75;;;5.40;;
45344;SDS011;31078;48.304;11.896;2023-06-10T08:14:45;6.45;;;5.05;;
45344;SDS011;31078;48.304;11.896;2023-06-10T08:17:11;7.18;;;5.78;;
45344;SDS011;31078;48.304;11.896;2023-06-10T08:19:38;8.95;;;5.57;;
45344;SDS011;31078;48.304;11.896;2023-06-10T08:22:04;6.85;;;4.88;;
45344;SDS011;31078;48.304;11.896;2023-06-10T08:24:31;11.85;;;6.28;;
45344;SDS011;31078;48.304;11.896;2023-06-10T08:26:57;6.13;;;5.20;;
45344;SDS011;31078;48.304;11.896;2023-06-10T08:29:25;7.45;;;5.60;;
45344;SDS011;31078;48.304;11.896;2023-06-10T08:31:52;7.55;;;5.30;;
45344;SDS011;31078;48.304;11.896;2023-06-10T08:34:18;6.78;;;5.40;;
45344;SDS011;31078;48.304;11.896;2023-06-10T08:36:45;7.93;;;4.88;;
45344;SDS011;31078;48.304;11.896;2023-06-10T08:39:11;5.80;;;4.80;;
45344;SDS011;31078;48.304;11.896;2023-06-10T08:41:40;7.30;;;4.35;;
45344;SDS011;31078;48.304;11.896;2023-06-10T08:44:10;5.60;;;4.60;;
45344;SDS011;31078;48.304;11.896;2023-06-10T08:46:45;6.13;;;4.65;;
45344;SDS011;31078;48.304;11.896;2023-06-10T08:49:14;5.28;;;4.28;;
45344;SDS011;31078;48.304;11.896;2023-06-10T08:51:45;5.20;;;3.97;;
45344;SDS011;31078;48.304;11.896;2023-06-10T08:54:17;5.35;;;4.18;;
45344;SDS011;31078;48.304;11.896;2023-06-10T08:56:51;4.90;;;3.80;;
45344;SDS011;31078;48.304;11.896;2023-06-10T08:59:20;5.32;;;4.43;;
45344;SDS011;31078;48.304;11.896;2023-06-10T09:01:48;5.60;;;3.78;;
45344;SDS011;31078;48.304;11.896;2023-06-10T09:04:16;5.07;;;4.32;;
45344;SDS011;31078;48.304;11.896;2023-06-10T09:06:44;7.00;;;4.15;;
45344;SDS011;31078;48.304;11.896;2023-06-10T09:09:11;6.40;;;4.55;;
45344;SDS011;31078;48.304;11.896;2023-06-10T09:11:39;4.90;;;4.40;;
45344;SDS011;31078;48.304;11.896;2023-06-10T09:14:08;4.97;;;4.15;;
45344;SDS011;31078;48.304;11.896;2023-06-10T09:16:34;6.93;;;4.50;;
45344;SDS011;31078;48.304;11.896;2023-06-10T09:19:03;8.32;;;5.05;;
45344;SDS011;31078;48.304;11.896;2023-06-10T09:21:33;5.43;;;4.47;;
45344;SDS011;31078;48.304;11.896;2023-06-10T09:24:00;7.68;;;4.82;;
45344;SDS011;31078;48.304;11.896;2023-06-10T09:26:27;5.10;;;4.38;;
45344;SDS011;31078;48.304;11.896;2023-06-10T09:28:57;5.70;;;4.60;;
45344;SDS011;31078;48.304;11.896;2023-06-10T09:31:29;6.97;;;4.28;;
45344;SDS011;31078;48.304;11.896;2023-06-10T09:34:05;4.57;;;3.85;;
45344;SDS011;31078;48.304;11.896;2023-06-10T09:36:32;4.35;;;3.53;;
45344;SDS011;31078;48.304;11.896;2023-06-10T09:38:59;4.68;;;3.85;;
45344;SDS011;31078;48.304;11.896;2023-06-10T09:41:31;6.78;;;4.13;;
45344;SDS011;31078;48.304;11.896;2023-06-10T09:43:58;5.05;;;4.10;;
45344;SDS011;31078;48.304;11.896;2023-06-10T09:46:25;7.80;;;4.38;;
45344;SDS011;31078;48.304;11.896;2023-06-10T09:48:57;5.40;;;4.07;;
45344;SDS011;31078;48.304;11.896;2023-06-10T09:51:26;5.93;;;3.53;;
45344;SDS011;31078;48.304;11.896;2023-06-10T09:53:53;5.22;;;4.30;;
45344;SDS011;31078;48.304;11.896;2023-06-10T09:56:20;5.35;;;4.18;;
45344;SDS011;31078;48.304;11.896;2023-06-10T09:58:49;6.40;;;4.70;;
45344;SDS011;31078;48.304;11.896;2023-06-10T10:01:19;4.75;;;4.03;;
45344;SDS011;31078;48.304;11.896;2023-06-10T10:03:45;4.97;;;4.45;;
45344;SDS011;31078;48.304;11.896;2023-06-10T10:06:14;4.85;;;3.80;;
45344;SDS011;31078;48.304;11.896;2023-06-10T10:08:43;8.18;;;4.28;;
45344;SDS011;31078;48.304;11.896;2023-06-10T10:11:10;6.63;;;4.43;;
45344;SDS011;31078;48.304;11.896;2023-06-10T10:13:36;7.22;;;4.20;;
45344;SDS011;31078;48.304;11.896;2023-06-10T10:16:04;9.73;;;4.40;;
45344;SDS011;31078;48.304;11.896;2023-06-10T10:18:36;5.90;;;4.10;;
45344;SDS011;31078;48.304;11.896;2023-06-10T10:21:08;6.05;;;3.88;;
45344;SDS011;31078;48.304;11.896;2023-06-10T10:23:39;6.38;;;3.92;;
45344;SDS011;31078;48.304;11.896;2023-06-10T10:26:11;5.18;;;3.72;;
45344;SDS011;31078;48.304;11.896;2023-06-10T10:28:41;4.25;;;3.70;;
45344;SDS011;31078;48.304;11.896;2023-06-10T10:31:11;10.18;;;4.43;;
45344;SDS011;31078;48.304;11.896;2023-06-10T10:33:46;8.38;;;4.35;;
45344;SDS011;31078;48.304;11.896;2023-06-10T10:36:19;5.65;;;3.88;;
45344;SDS011;31078;48.304;11.896;2023-06-10T10:38:45;5.57;;;3.90;;
45344;SDS011;31078;48.304;11.896;2023-06-10T10:41:15;5.38;;;3.83;;
45344;SDS011;31078;48.304;11.896;2023-06-10T10:43:44;5.55;;;3.80;;
45344;SDS011;31078;48.304;11.896;2023-06-10T10:46:12;4.55;;;3.60;;
45344;SDS011;31078;48.304;11.896;2023-06-10T10:48:40;6.25;;;3.80;;
45344;SDS011;31078;48.304;11.896;2023-06-10T10:51:07;4.80;;;3.92;;
45344;SDS011;31078;48.304;11.896;2023-06-10T10:53:34;4.82;;;3.85;;
45344;SDS011;31078;48.304;11.896;2023-06-10T10:56:04;5.22;;;3.65;;
45344;SDS011;31078;48.304;11.896;2023-06-10T10:58:34;5.45;;;4.07;;
45344;SDS011;31078;48.304;11.896;2023-06-10T11:01:09;4.88;;;3.90;;
45344;SDS011;31078;48.304;11.896;2023-06-10T11:03:41;4.32;;;3.55;;
45344;SDS011;31078;48.304;11.896;2023-06-10T11:06:11;4.72;;;3.83;;
45344;SDS011;31078;48.304;11.896;2023-06-10T11:08:45;4.80;;;3.63;;
45344;SDS011;31078;48.304;11.896;2023-06-10T11:11:20;5.18;;;4.00;;
45344;SDS011;31078;48.304;11.896;2023-06-10T11:14:07;4.82;;;3.70;;
45344;SDS011;31078;48.304;11.896;2023-06-10T11:16:40;4.30;;;3.50;;
45344;SDS011;31078;48.304;11.896;2023-06-10T11:19:07;6.40;;;3.85;;
45344;SDS011;31078;48.304;11.896;2023-06-10T11:21:37;5.65;;;3.85;;
45344;SDS011;31078;48.304;11.896;2023-06-10T11:24:23;4.15;;;3.50;;
45344;SDS011;31078;48.304;11.896;2023-06-10T11:26:51;4.95;;;3.55;;
45344;SDS011;31078;48.304;11.896;2023-06-10T11:29:19;4.53;;;3.60;;
45344;SDS011;31078;48.304;11.896;2023-06-10T11:31:46;4.40;;;3.47;;
45344;SDS011;31078;48.304;11.896;2023-06-10T11:34:21;10.52;;;3.47;;
45344;SDS011;31078;48.304;11.896;2023-06-10T11:36:49;4.32;;;3.85;;
45344;SDS011;31078;48.304;11.896;2023-06-10T11:39:17;4.38;;;3.60;;
45344;SDS011;31078;48.304;11.896;2023-06-10T11:41:45;5.93;;;3.67;;
45344;SDS011;31078;48.304;11.896;2023-06-10T11:44:12;5.18;;;3.75;;
45344;SDS011;31078;48.304;11.896;2023-06-10T11:46:41;4.50;;;3.63;;
45344;SDS011;31078;48.304;11.896;2023-06-10T11:49:08;4.50;;;3.60;;
45344;SDS011;31078;48.304;11.896;2023-06-10T11:51:35;5.88;;;4.22;;
45344;SDS011;31078;48.304;11.896;2023-06-10T11:54:04;5.03;;;3.70;;
45344;SDS011;31078;48.304;11.896;2023-06-10T11:56:31;7.38;;;4.60;;
45344;SDS011;31078;48.304;11.896;2023-06-10T11:58:59;5.20;;;4.07;;
45344;SDS011;31078;48.304;11.896;2023-06-10T12:01:29;5.50;;;4.60;;
45344;SDS011;31078;48.304;11.896;2023-06-10T12:03:58;5.53;;;4.93;;
45344;SDS011;31078;48.304;11.896;2023-06-10T12:06:26;6.38;;;5.22;;
45344;SDS011;31078;48.304;11.896;2023-06-10T12:08:53;6.97;;;5.20;;
45344;SDS011;31078;48.304;11.896;2023-06-10T12:11:20;6.45;;;5.15;;
45344;SDS011;31078;48.304;11.896;2023-06-10T12:13:46;6.25;;;4.95;;
45344;SDS011;31078;48.304;11.896;2023-06-10T12:16:14;5.32;;;4.65;;
45344;SDS011;31078;48.304;11.896;2023-06-10T12:18:42;7.32;;;4.75;;
45344;SDS011;31078;48.304;11.896;2023-06-10T12:21:20;5.05;;;4.45;;
45344;SDS011;31078;48.304;11.896;2023-06-10T12:24:03;6.38;;;4.82;;
45344;SDS011;31078;48.304;11.896;2023-06-10T12:26:38;6.70;;;4.57;;
45344;SDS011;31078;48.304;11.896;2023-06-10T12:29:18;8.60;;;4.60;;
45344;SDS011;31078;48.304;11.896;2023-06-10T12:32:00;6.50;;;4.40;;
45344;SDS011;31078;48.304;11.896;2023-06-10T12:34:31;7.90;;;4.47;;
45344;SDS011;31078;48.304;11.896;2023-06-10T12:37:00;5.28;;;4.05;;
45344;SDS011;31078;48.304;11.896;2023-06-10T12:39:28;6.18;;;3.85;;
45344;SDS011;31078;48.304;11.896;2023-06-10T12:41:54;4.32;;;3.83;;
45344;SDS011;31078;48.304;11.896;2023-06-10T12:44:30;5.47;;;4.30;;
45344;SDS011;31078;48.304;11.896;2023-06-10T12:46:58;7.05;;;4.47;;
45344;SDS011;31078;48.304;11.896;2023-06-10T12:49:25;4.45;;;3.80;;
45344;SDS011;31078;48.304;11.896;2023-06-10T12:51:52;6.20;;;4.28;;
45344;SDS011;31078;48.304;11.896;2023-06-10T12:54:20;6.90;;;4.28;;
45344;SDS011;31078;48.304;11.896;2023-06-10T12:56:47;5.93;;;4.13;;
45344;SDS011;31078;48.304;11.896;2023-06-10T12:59:14;4.95;;;4.00;;
45344;SDS011;31078;48.304;11.896;2023-06-10T13:01:40;5.63;;;4.40;;
45344;SDS011;31078;48.304;11.896;2023-06-10T13:04:07;5.28;;;4.38;;
45344;SDS011;31078;48.304;11.896;2023-06-10T13:06:33;5.20;;;3.80;;
45344;SDS011;31078;48.304;11.896;2023-06-10T13:09:02;6.00;;;4.15;;
45344;SDS011;31078;48.304;11.896;2023-06-10T13:11:31;6.25;;;4.30;;
45344;SDS011;31078;48.304;11.896;2023-06-10T13:13:57;4.63;;;3.70;;
45344;SDS011;31078;48.304;11.896;2023-06-10T13:16:24;6.72;;;4.57;;
45344;SDS011;31078;48.304;11.896;2023-06-10T13:18:52;3.88;;;3.35;;
45344;SDS011;31078;48.304;11.896;2023-06-10T13:21:19;5.43;;;3.47;;
45344;SDS011;31078;48.304;11.896;2023-06-10T13:23:46;5.90;;;3.95;;
45344;SDS011;31078;48.304;11.896;2023-06-10T13:26:13;4.03;;;3.60;;
45344;SDS011;31078;48.304;11.896;2023-06-10T13:28:42;5.40;;;3.58;;
45344;SDS011;31078;48.304;11.896;2023-06-10T13:31:09;4.30;;;3.58;;
45344;SDS011;31078;48.304;11.896;2023-06-10T13:33:35;5.18;;;3.80;;
45344;SDS011;31078;48.304;11.896;2023-06-10T13:36:02;4.50;;;3.83;;
45344;SDS011;31078;48.304;11.896;2023-06-10T13:38:29;5.28;;;3.95;;
45344;SDS011;31078;48.304;11.896;2023-06-10T13:40:55;4.75;;;3.53;;
45344;SDS011;31078;48.304;11.896;2023-06-10T13:43:22;6.05;;;4.07;;
45344;SDS011;31078;48.304;11.896;2023-06-10T13:45:50;5.22;;;4.00;;
45344;SDS011;31078;48.304;11.896;2023-06-10T13:48:17;6.15;;;4.40;;
45344;SDS011;31078;48.304;11.896;2023-06-10T13:50:43;7.50;;;4.07;;
45344;SDS011;31078;48.304;11.896;2023-06-10T13:53:10;6.03;;;4.68;;
45344;SDS011;31078;48.304;11.896;2023-06-10T13:55:37;4.90;;;3.63;;
45344;SDS011;31078;48.304;11.896;2023-06-10T13:58:03;4.88;;;3.67;;
45344;SDS011;31078;48.304;11.896;2023-06-10T14:00:30;7.28;;;3.70;;
45344;SDS011;31078;48.304;11.896;2023-06-10T14:02:58;4.57;;;3.65;;
45344;SDS011;31078;48.304;11.896;2023-06-10T14:05:24;4.05;;;3.53;;
45344;SDS011;31078;48.304;11.896;2023-06-10T14:07:51;4.78;;;3.97;;
45344;SDS011;31078;48.304;11.896;2023-06-10T14:10:17;5.00;;;4.13;;
45344;SDS011;31078;48.304;11.896;2023-06-10T14:12:44;4.68;;;3.67;;
45344;SDS011;31078;48.304;11.896;2023-06-10T14:15:10;4.40;;;3.60;;
45344;SDS011;31078;48.304;11.896;2023-06-10T14:17:37;4.07;;;3.60;;
45344;SDS011;31078;48.304;11.896;2023-06-10T14:20:05;5.07;;;3.95;;
45344;SDS011;31078;48.304;11.896;2023-06-10T14:22:32;5.70;;;3.95;;
45344;SDS011;31078;48.304;11.896;2023-06-10T14:24:59;4.47;;;3.95;;
45344;SDS011;31078;48.304;11.896;2023-06-10T14:27:25;4.72;;;4.10;;
45344;SDS011;31078;48.304;11.896;2023-06-10T14:29:52;4.80;;;3.83;;
45344;SDS011;31078;48.304;11.896;2023-06-10T14:32:18;5.70;;;4.07;;
45344;SDS011;31078;48.304;11.896;2023-06-10T14:34:45;4.88;;;3.80;;